createdAt,value
2022-08-04T00:06:03.879Z,83.50
2022-08-04T00:10:52.734Z,86.90
2022-08-04T00:20:50.668Z,88.50
2022-08-04T00:25:48.645Z,87.70
2022-08-04T00:30:48.588Z,87.60
2022-08-04T00:35:49.378Z,84.80
2022-08-04T00:40:58.414Z,89.20
2022-08-04T00:46:16.247Z,88.90
2022-08-04T00:51:05.804Z,90.70
2022-08-04T00:56:03.792Z,91.30
2022-08-04T01:01:00.871Z,91.90
2022-08-04T01:06:02.193Z,90.40
2022-08-04T01:10:58.046Z,90.90
2022-08-04T01:30:55.739Z,92.10
2022-08-04T01:36:00.909Z,92.10
2022-08-04T01:40:53.171Z,92.20
2022-08-04T01:50:52.950Z,93.40
2022-08-04T02:10:58.667Z,95.10
2022-08-04T02:15:59.655Z,94.00
2022-08-04T02:20:54.989Z,94.50
2022-08-04T02:30:56.697Z,93.70
2022-08-04T02:35:56.220Z,93.40
2022-08-04T02:40:50.364Z,93.20
2022-08-04T02:55:52.300Z,93.40
2022-08-04T03:00:49.990Z,93.30
2022-08-04T03:06:10.718Z,93.10
2022-08-04T03:11:04.961Z,93.60
2022-08-04T03:16:02.275Z,92.50
2022-08-04T03:21:08.766Z,94.20
2022-08-04T03:31:06.168Z,96.90
2022-08-04T03:56:08.968Z,97.90
2022-08-04T04:01:10.871Z,99.90
2022-08-04T04:11:08.913Z,99.90
2022-08-04T04:21:08.924Z,99.90
2022-08-04T04:26:02.799Z,99.90
2022-08-04T04:31:02.307Z,99.90
2022-08-04T04:35:59.026Z,99.90
2022-08-04T04:45:57.085Z,99.90
2022-08-04T04:50:57.458Z,99.90
2022-08-04T04:55:58.659Z,99.90
2022-08-04T05:15:53.766Z,99.90
2022-08-04T05:25:59.413Z,99.90
2022-08-04T05:36:20.312Z,99.90
2022-08-04T06:00:52.130Z,99.90
2022-08-04T06:05:50.530Z,99.90
2022-08-04T06:10:50.394Z,99.90
2022-08-04T06:15:49.969Z,99.90
2022-08-04T06:35:54.179Z,99.90
2022-08-04T06:45:50.225Z,99.90
2022-08-04T06:51:32.926Z,99.90
2022-08-04T06:55:50.743Z,99.90
2022-08-04T07:00:49.827Z,99.90
2022-08-04T07:05:50.464Z,99.60
2022-08-04T07:26:00.066Z,96.20
2022-08-04T07:30:50.111Z,95.60
2022-08-04T07:36:09.294Z,93.40
2022-08-04T07:40:49.767Z,91.90
2022-08-04T07:45:49.738Z,90.30
2022-08-04T07:50:50.696Z,89.60
2022-08-04T07:55:50.040Z,86.40
2022-08-04T08:00:50.470Z,83.90
2022-08-04T08:06:17.581Z,79.20
2022-08-04T08:10:50.374Z,77.80
2022-08-04T08:15:51.627Z,75.10
2022-08-04T08:20:52.094Z,73.60
2022-08-04T08:25:49.925Z,74.00
2022-08-04T08:36:03.858Z,68.50
2022-08-04T08:40:57.612Z,69.50
2022-08-04T08:51:00.418Z,61.70
2022-08-04T08:56:06.377Z,60.10
2022-08-04T09:01:00.790Z,59.50
2022-08-04T09:06:00.305Z,58.40
2022-08-04T09:10:55.801Z,57.40
2022-08-04T09:16:09.735Z,56.10
2022-08-04T09:20:54.955Z,56.30
2022-08-04T09:26:04.892Z,54.90
2022-08-04T09:30:59.829Z,56.20
2022-08-04T09:35:57.700Z,54.90
2022-08-04T09:41:02.879Z,54.10
2022-08-04T09:46:03.170Z,54.70
2022-08-04T09:50:58.049Z,52.80
2022-08-04T09:56:03.283Z,51.80
2022-08-04T10:05:59.006Z,50.30
2022-08-04T10:10:58.916Z,44.30
2022-08-04T10:16:04.129Z,38.70
2022-08-04T10:21:10.217Z,37.70
2022-08-04T10:26:07.693Z,38.90
2022-08-04T10:31:04.125Z,38.20
2022-08-04T10:35:54.147Z,35.70
2022-08-04T10:41:05.283Z,34.00
2022-08-04T10:46:01.058Z,31.80
2022-08-04T10:51:01.112Z,35.50
2022-08-04T10:56:07.352Z,30.60
2022-08-04T11:00:55.830Z,26.90
2022-08-04T11:05:55.425Z,27.10
2022-08-04T11:11:01.675Z,27.80
2022-08-04T11:15:55.321Z,28.10
2022-08-04T11:20:56.436Z,26.60
2022-08-04T11:25:57.833Z,27.00
2022-08-04T11:30:55.849Z,26.50
2022-08-04T11:36:06.787Z,26.80
2022-08-04T11:41:03.093Z,24.70
2022-08-04T11:45:56.122Z,21.90
2022-08-04T11:50:54.045Z,22.30
2022-08-04T11:56:08.322Z,23.70
2022-08-04T12:01:04.770Z,26.60
2022-08-04T12:06:04.194Z,25.90
2022-08-04T12:11:05.093Z,27.40
2022-08-04T12:16:06.302Z,29.00
2022-08-04T12:21:04.487Z,31.00
2022-08-04T12:25:54.924Z,31.00
2022-08-04T12:31:02.073Z,30.50
2022-08-04T12:36:10.530Z,30.90
2022-08-04T12:40:53.964Z,32.30
2022-08-04T12:56:01.193Z,34.70
2022-08-04T13:01:02.531Z,36.30
2022-08-04T13:05:53.348Z,39.70
2022-08-04T13:10:56.323Z,42.60
2022-08-04T13:16:00.725Z,40.70
2022-08-04T13:26:44.846Z,38.40
2022-08-04T13:30:55.620Z,38.20
2022-08-04T13:35:55.624Z,40.70
2022-08-04T13:40:51.541Z,38.40
2022-08-04T13:45:57.272Z,41.60
2022-08-04T13:50:51.971Z,44.70
2022-08-04T13:56:00.449Z,40.40
2022-08-04T14:00:59.015Z,40.10
2022-08-04T14:06:04.770Z,39.20
2022-08-04T14:10:53.061Z,39.50
2022-08-04T14:21:07.614Z,37.80
2022-08-04T14:25:51.513Z,37.00
2022-08-04T14:30:50.806Z,37.40
2022-08-04T14:35:59.109Z,38.00
2022-08-04T14:40:58.476Z,40.00
2022-08-04T14:46:04.464Z,39.90
2022-08-04T14:50:51.428Z,38.60
2022-08-04T15:00:55.718Z,37.00
2022-08-04T15:06:02.267Z,36.80
2022-08-04T15:10:57.411Z,36.90
2022-08-04T15:16:07.910Z,36.80
2022-08-04T15:20:51.421Z,38.30
2022-08-04T15:25:55.452Z,39.10
2022-08-04T15:30:53.441Z,39.50
2022-08-04T15:35:55.221Z,39.40
2022-08-04T15:40:58.748Z,40.20
2022-08-04T15:46:41.050Z,41.40
2022-08-04T15:50:58.262Z,41.50
2022-08-04T15:55:52.723Z,41.70
2022-08-04T16:00:53.082Z,42.00
2022-08-04T16:05:51.056Z,41.80
2022-08-04T16:10:51.945Z,42.10
2022-08-04T16:15:56.104Z,42.90
2022-08-04T16:25:51.213Z,43.50
2022-08-04T16:30:58.423Z,44.60
2022-08-04T16:35:51.235Z,43.90
2022-08-04T16:40:56.704Z,44.10
2022-08-04T16:55:54.547Z,48.00
2022-08-04T17:00:51.813Z,48.90
2022-08-04T17:10:51.234Z,51.60
2022-08-04T17:15:54.045Z,53.10
2022-08-04T17:25:56.940Z,52.70
2022-08-04T17:30:54.355Z,52.60
2022-08-04T17:40:54.846Z,53.30
2022-08-04T17:46:11.157Z,53.00
2022-08-04T17:50:51.465Z,54.20
2022-08-04T17:55:51.452Z,52.90
2022-08-04T18:06:02.290Z,52.80
2022-08-04T18:10:56.505Z,52.50
2022-08-04T18:20:51.434Z,53.40
2022-08-04T18:25:52.283Z,53.90
2022-08-04T18:40:54.351Z,53.70
2022-08-04T18:45:51.524Z,54.10
2022-08-04T19:00:51.543Z,54.30
2022-08-04T19:05:51.946Z,53.80
2022-08-04T19:10:54.196Z,54.40
2022-08-04T19:15:52.360Z,54.30
2022-08-04T19:20:51.724Z,54.30
2022-08-04T19:30:52.375Z,53.00
2022-08-04T19:35:51.739Z,53.00
2022-08-04T19:45:51.685Z,53.60
2022-08-04T19:55:51.769Z,54.20
2022-08-04T20:00:52.873Z,55.00
2022-08-04T20:05:55.269Z,55.70
2022-08-04T20:15:57.549Z,57.40
2022-08-04T20:25:51.721Z,58.80
2022-08-04T20:55:55.011Z,61.60
2022-08-04T21:00:53.229Z,62.50
2022-08-04T21:05:52.527Z,62.20
2022-08-04T21:10:51.850Z,63.00
2022-08-04T21:20:51.989Z,62.10
2022-08-04T21:25:54.245Z,62.20
2022-08-04T21:35:54.387Z,62.60
2022-08-04T21:45:53.040Z,62.40
2022-08-04T21:50:52.612Z,62.50
2022-08-04T22:05:52.071Z,63.40
2022-08-04T22:35:52.079Z,63.90
2022-08-04T22:50:52.212Z,63.90
2022-08-04T23:26:07.254Z,63.40
2022-08-04T23:35:54.798Z,63.10
2022-08-04T23:40:52.685Z,63.50
2022-08-04T23:55:52.330Z,64.10
